Time;durP1;ratioP1;P1;durP2;ratioP2;P2;SDS_P1;SDS_P2;PMS_P1;PMS_P2;Temp;Humidity;BMP_temperature;BMP_pressure;BME280_temperature;BME280_humidity;BME280_pressure;Samples;Min_cycle;Max_cycle;Signal;HPM_P1;HPM_P2
2021/06/30 00:00:07;;;;;;;2.47;2.10;;;;;;;18.07;70.49;98725.19;5103276;28;20091;-66
2021/06/30 00:02:33;;;;;;;4.00;2.20;;;;;;;18.40;70.93;98788.53;5085160;28;20062;-65
2021/06/30 00:04:59;;;;;;;2.20;2.00;;;;;;;18.23;71.53;98768.69;5103127;28;20032;-64
2021/06/30 00:07:26;;;;;;;2.65;1.83;;;;;;;18.42;71.42;98784.00;5065257;28;20048;-65
2021/06/30 00:09:52;;;;;;;5.65;2.10;;;;;;;18.41;71.38;98779.69;5065031;28;20024;-65
2021/06/30 00:12:18;;;;;;;2.20;2.00;;;;;;;18.42;70.56;98784.84;5082828;28;20050;-64
2021/06/30 00:14:45;;;;;;;5.05;2.42;;;;;;;18.48;71.09;98785.38;5082812;28;20020;-65
2021/06/30 00:17:11;;;;;;;2.13;1.92;;;;;;;18.48;71.18;98769.63;5082748;28;20040;-64
2021/06/30 00:19:37;;;;;;;3.03;2.20;;;;;;;18.59;71.44;98774.97;5082839;28;20334;-65
2021/06/30 00:22:04;;;;;;;3.55;2.67;;;;;;;18.57;71.24;98782.97;5082560;28;20201;-65
2021/06/30 00:24:29;;;;;;;3.15;2.47;;;;;;;18.60;71.30;98781.91;5082700;28;20055;-65
2021/06/30 00:26:55;;;;;;;4.75;2.22;;;;;;;18.54;70.90;98780.56;5082707;28;20025;-65
2021/06/30 00:29:21;;;;;;;3.22;1.77;;;;;;;18.56;71.29;98777.81;5082630;28;20182;-65
2021/06/30 00:31:47;;;;;;;2.10;1.90;;;;;;;18.54;71.00;98785.78;5082799;28;20020;-64
2021/06/30 00:34:13;;;;;;;3.38;1.83;;;;;;;18.43;70.77;98767.34;5082621;28;20044;-65
2021/06/30 00:36:47;;;;;;;3.30;1.80;;;;;;;18.42;71.51;98782.22;5082627;28;20221;-64
2021/06/30 00:39:16;;;;;;;1.77;1.67;;;;;;;18.43;71.46;98783.06;5082533;28;20044;-65
2021/06/30 00:41:43;;;;;;;3.70;1.80;;;;;;;18.42;71.13;98786.63;5082527;28;20048;-64
2021/06/30 00:44:11;;;;;;;2.78;1.92;;;;;;;18.46;71.50;98788.09;5082542;28;20060;-64
2021/06/30 00:46:36;;;;;;;2.65;1.98;;;;;;;18.43;71.35;98790.94;5082582;28;20044;-65
2021/06/30 00:49:06;;;;;;;2.80;2.00;;;;;;;18.44;71.85;98782.97;5082556;28;20352;-66
2021/06/30 00:51:32;;;;;;;3.40;2.00;;;;;;;18.43;72.22;98783.91;5082294;28;20036;-67
2021/06/30 00:53:59;;;;;;;2.35;1.50;;;;;;;18.53;71.75;98781.47;5082500;28;20352;-64
2021/06/30 00:56:27;;;;;;;2.90;1.83;;;;;;;18.11;72.00;98737.16;5082383;28;20059;-64
2021/06/30 00:58:58;;;;;;;3.35;1.92;;;;;;;18.32;71.63;98801.31;5082486;28;20048;-64
2021/06/30 01:01:24;;;;;;;3.10;2.25;;;;;;;18.32;72.40;98789.03;5064429;28;20048;-64
2021/06/30 01:03:51;;;;;;;4.63;2.10;;;;;;;18.30;71.78;98772.59;5082224;28;20045;-64
2021/06/30 01:06:17;;;;;;;3.05;2.20;;;;;;;18.38;71.98;98775.50;5082282;28;20063;-64
2021/06/30 01:08:44;;;;;;;2.30;2.10;;;;;;;18.39;72.63;98779.81;5085569;28;20039;-63
2021/06/30 01:11:11;;;;;;;4.13;2.42;;;;;;;18.29;71.85;98768.28;5068156;28;20036;-67
2021/06/30 01:13:39;;;;;;;4.90;2.50;;;;;;;18.30;72.61;98780.44;5086048;28;20040;-67
2021/06/30 01:16:05;;;;;;;2.20;2.00;;;;;;;18.31;71.94;98769.00;5085903;28;20040;-67
2021/06/30 01:18:32;;;;;;;3.63;2.00;;;;;;;18.41;72.41;98787.56;5085852;28;20020;-66
2021/06/30 01:21:00;;;;;;;6.03;2.30;;;;;;;18.39;72.06;98782.44;5085881;28;20040;-66
2021/06/30 01:23:26;;;;;;;3.90;2.33;;;;;;;18.24;72.55;98770.38;5085684;28;20041;-65
2021/06/30 01:25:53;;;;;;;3.33;2.20;;;;;;;18.29;71.81;98786.63;5085417;28;20050;-65
2021/06/30 01:28:20;;;;;;;4.13;2.20;;;;;;;18.19;71.53;98754.13;5085545;28;20265;-65
2021/06/30 01:30:53;;;;;;;3.63;2.20;;;;;;;18.45;72.30;98791.66;5085627;28;20266;-67
2021/06/30 01:33:19;;;;;;;2.33;2.13;;;;;;;18.42;71.75;98792.69;5085510;28;20056;-66
2021/06/30 01:35:45;;;;;;;3.22;2.17;;;;;;;18.31;72.17;98774.25;5085548;28;20044;-65
2021/06/30 01:38:11;;;;;;;2.30;2.10;;;;;;;18.28;73.03;98784.94;5085485;28;20195;-65
2021/06/30 01:40:39;;;;;;;3.88;2.03;;;;;;;18.37;72.15;98783.47;5085461;28;20021;-66
2021/06/30 01:43:06;;;;;;;2.55;2.35;;;;;;;18.24;71.99;98762.50;5085286;28;20052;-65
2021/06/30 01:45:32;;;;;;;3.47;2.50;;;;;;;18.38;72.08;98777.28;5085313;28;20055;-66
2021/06/30 01:47:58;;;;;;;2.67;2.30;;;;;;;18.48;71.76;98785.38;5085283;28;20044;-65
2021/06/30 01:50:24;;;;;;;4.65;2.15;;;;;;;18.45;72.18;98775.94;5085269;28;20035;-64
2021/06/30 01:52:50;;;;;;;2.70;2.50;;;;;;;18.49;71.71;98787.88;5067256;28;20291;-65
2021/06/30 01:55:16;;;;;;;3.35;2.70;;;;;;;18.49;72.19;98780.00;5085119;28;20081;-66
2021/06/30 01:57:44;;;;;;;2.85;2.28;;;;;;;18.42;71.74;98776.13;5085088;28;20040;-64
2021/06/30 02:00:13;;;;;;;2.50;2.30;;;;;;;18.17;72.41;98738.50;5085050;28;20051;-65
2021/06/30 02:02:39;;;;;;;3.33;2.50;;;;;;;18.52;72.11;98778.97;5084840;28;20325;-65
2021/06/30 02:05:27;;;;;;;3.22;2.47;;;;;;;18.26;72.20;98744.91;5085000;28;20286;-65
2021/06/30 02:07:56;;;;;;;2.90;2.40;;;;;;;18.50;72.28;98767.72;5084936;28;20055;-65
2021/06/30 02:10:23;;;;;;;3.53;2.72;;;;;;;18.50;71.91;98763.34;5084912;28;20063;-65
2021/06/30 02:12:50;;;;;;;3.55;2.33;;;;;;;18.58;72.36;98765.44;5084670;28;20048;-67
2021/06/30 02:15:25;;;;;;;4.30;2.55;;;;;;;18.28;72.21;98712.41;5084789;28;20040;-65
2021/06/30 02:17:52;;;;;;;2.72;2.53;;;;;;;18.53;71.94;98757.06;5084304;28;20060;-65
2021/06/30 02:20:19;;;;;;;2.88;2.60;;;;;;;18.56;71.72;98757.66;5084646;28;20048;-65
2021/06/30 02:22:46;;;;;;;4.40;2.67;;;;;;;18.69;71.41;98767.31;5084515;28;20055;-66
2021/06/30 02:25:15;;;;;;;3.00;2.38;;;;;;;18.47;72.12;98729.47;5084644;28;20048;-65
2021/06/30 02:27:42;;;;;;;3.00;2.42;;;;;;;18.77;71.27;98778.94;5084507;28;20056;-66
2021/06/30 02:30:22;;;;;;;4.72;2.75;;;;;;;18.52;71.08;98729.16;5066743;28;20049;-65
2021/06/30 02:32:48;;;;;;;3.88;2.78;;;;;;;18.92;70.81;98768.34;5084267;28;20329;-65
2021/06/30 02:35:17;;;;;;;3.90;2.85;;;;;;;18.90;71.13;98772.88;5084438;28;20047;-65
2021/06/30 02:37:44;;;;;;;3.03;2.25;;;;;;;18.92;70.63;98770.97;5084341;28;20052;-66
2021/06/30 02:40:13;;;;;;;3.17;2.53;;;;;;;18.62;70.81;98727.56;5084368;28;20048;-66
2021/06/30 02:42:40;;;;;;;3.08;2.75;;;;;;;18.94;71.44;98777.78;5084138;28;20047;-66
2021/06/30 02:45:09;;;;;;;2.90;2.40;;;;;;;18.98;71.35;98778.41;5084281;28;20049;-66
2021/06/30 02:47:37;;;;;;;3.60;2.40;;;;;;;18.96;71.05;98778.50;5084049;28;20309;-65
2021/06/30 02:50:04;;;;;;;3.63;2.35;;;;;;;18.84;71.13;98765.38;5084137;28;20040;-66
2021/06/30 02:52:31;;;;;;;3.33;2.47;;;;;;;19.02;70.86;98773.78;5083876;28;20111;-66
2021/06/30 02:54:57;;;;;;;3.13;2.50;;;;;;;18.97;70.76;98771.50;5083989;28;20254;-66
2021/06/30 02:57:23;;;;;;;3.05;2.40;;;;;;;18.99;70.75;98772.19;5084022;28;20024;-68
2021/06/30 02:59:49;;;;;;;4.72;2.83;;;;;;;18.94;71.29;98780.41;5083874;28;20032;-66
2021/06/30 03:02:14;;;;;;;2.83;2.60;;;;;;;18.91;71.49;98778.00;5083747;28;20233;-67
2021/06/30 03:04:40;;;;;;;3.03;2.50;;;;;;;18.92;71.50;98779.66;5083820;28;20036;-66
2021/06/30 03:07:06;;;;;;;3.28;2.97;;;;;;;18.94;71.64;98782.19;5083652;28;20107;-66
2021/06/30 03:09:32;;;;;;;4.45;2.53;;;;;;;19.00;71.94;98775.66;5083749;28;20024;-69
2021/06/30 03:11:58;;;;;;;3.78;2.78;;;;;;;18.93;71.90;98770.84;5083609;28;20028;-66
2021/06/30 03:14:24;;;;;;;6.38;2.83;;;;;;;19.00;71.32;98771.25;5083650;28;20040;-67
2021/06/30 03:16:50;;;;;;;3.25;2.90;;;;;;;19.09;70.87;98772.38;5083555;28;20325;-66
2021/06/30 03:19:17;;;;;;;5.22;3.22;;;;;;;19.05;71.48;98776.19;5065978;28;20213;-67
2021/06/30 03:21:42;;;;;;;4.07;2.85;;;;;;;19.04;71.51;98771.88;5083562;28;20055;-64
2021/06/30 03:24:09;;;;;;;3.53;2.70;;;;;;;19.02;70.82;98769.34;5083431;28;20232;-64
2021/06/30 03:26:35;;;;;;;3.60;2.78;;;;;;;18.95;71.41;98770.75;5083331;28;20047;-65
2021/06/30 03:29:02;;;;;;;4.18;2.58;;;;;;;18.94;70.99;98763.81;5083231;28;20039;-65
2021/06/30 03:31:29;;;;;;;4.20;2.95;;;;;;;18.96;70.36;98767.19;5082806;28;20332;-64
2021/06/30 03:33:56;;;;;;;2.75;2.55;;;;;;;18.96;71.26;98769.81;5083235;28;20036;-66
2021/06/30 03:36:21;;;;;;;3.78;3.17;;;;;;;19.07;70.25;98759.38;5083305;28;20048;-66
2021/06/30 03:38:47;;;;;;;4.88;3.10;;;;;;;19.12;70.59;98754.63;5083251;28;20028;-65
2021/06/30 03:41:13;;;;;;;3.33;2.50;;;;;;;19.19;69.97;98762.06;5083292;28;20281;-64
2021/06/30 03:43:39;;;;;;;3.00;2.63;;;;;;;19.21;69.34;98760.16;5082899;28;20209;-65
2021/06/30 03:46:07;;;;;;;5.40;2.83;;;;;;;19.08;69.17;98745.31;5082977;28;20024;-65
2021/06/30 03:48:33;;;;;;;4.45;2.50;;;;;;;19.23;68.78;98753.03;5082746;28;20036;-67
2021/06/30 03:50:59;;;;;;;4.30;2.90;;;;;;;19.38;69.24;98759.81;5083024;28;20332;-66
2021/06/30 03:53:24;;;;;;;6.45;3.05;;;;;;;19.37;69.81;98749.38;5082779;28;20020;-66
2021/06/30 03:55:50;;;;;;;3.70;2.70;;;;;;;19.40;68.83;98752.63;5082968;28;20016;-66
2021/06/30 03:58:16;;;;;;;4.88;2.90;;;;;;;19.24;70.07;98754.69;5083036;28;20058;-64
2021/06/30 04:00:42;;;;;;;4.78;2.97;;;;;;;19.24;69.38;98752.06;5082928;28;20088;-64
2021/06/30 04:03:08;;;;;;;2.90;2.30;;;;;;;19.41;69.08;98751.69;5082600;28;20032;-65
2021/06/30 04:05:33;;;;;;;4.53;2.80;;;;;;;19.42;68.75;98755.16;5065071;28;20107;-65
2021/06/30 04:07:59;;;;;;;4.22;2.63;;;;;;;19.42;68.94;98755.97;5082755;28;20070;-65
2021/06/30 04:10:26;;;;;;;4.55;3.20;;;;;;;19.35;68.41;98764.41;5082853;28;20028;-66
2021/06/30 04:12:52;;;;;;;2.88;2.58;;;;;;;19.11;69.38;98758.22;5082712;28;20330;-66
2021/06/30 04:15:17;;;;;;;4.30;2.70;;;;;;;19.01;69.15;98746.72;5082864;28;20027;-65
2021/06/30 04:17:43;;;;;;;3.67;2.35;;;;;;;19.24;69.77;98752.91;5082829;28;20020;-64
2021/06/30 04:20:10;;;;;;;3.40;2.70;;;;;;;19.20;69.46;98713.88;5082821;28;20020;-64
2021/06/30 04:22:36;;;;;;;4.30;2.70;;;;;;;19.56;68.81;98764.66;5082611;28;20047;-65
2021/06/30 04:25:06;;;;;;;5.07;2.70;;;;;;;19.61;68.91;98767.75;5082777;28;20051;-65
2021/06/30 04:27:33;;;;;;;3.55;2.70;;;;;;;19.67;68.56;98764.69;5082638;28;20337;-64
2021/06/30 04:30:01;;;;;;;3.40;2.47;;;;;;;19.60;68.40;98764.28;5082638;28;20051;-66
2021/06/30 04:32:27;;;;;;;4.30;2.45;;;;;;;19.56;68.56;98777.78;5082484;28;20047;-67
2021/06/30 04:34:53;;;;;;;3.22;2.78;;;;;;;19.60;69.09;98774.81;5082637;28;20040;-66
2021/06/30 04:37:19;;;;;;;2.60;2.40;;;;;;;19.63;68.81;98776.38;5082558;28;20020;-64
2021/06/30 04:39:45;;;;;;;3.55;2.50;;;;;;;19.62;68.48;98777.31;5082126;28;20373;-67
2021/06/30 04:42:11;;;;;;;3.42;2.65;;;;;;;19.62;68.26;98772.91;5085007;28;20052;-68
2021/06/30 04:44:37;;;;;;;3.60;2.80;;;;;;;19.61;68.81;98779.13;5086332;28;20056;-66
2021/06/30 04:47:03;;;;;;;2.35;2.15;;;;;;;19.71;68.19;98770.53;5086361;28;20214;-67
2021/06/30 04:49:29;;;;;;;3.35;2.40;;;;;;;19.77;67.80;98784.06;5086414;28;20102;-66
2021/06/30 04:51:55;;;;;;;3.08;2.22;;;;;;;19.52;67.85;98766.66;5086346;28;20326;-66
2021/06/30 04:54:22;;;;;;;3.08;2.53;;;;;;;19.56;68.24;98772.53;5086137;28;20247;-68
2021/06/30 04:56:49;;;;;;;5.05;2.67;;;;;;;19.77;68.47;98775.34;5086203;28;20048;-65
2021/06/30 04:59:15;;;;;;;5.60;2.40;;;;;;;19.78;67.91;98770.00;5086232;28;20056;-67
2021/06/30 05:01:40;;;;;;;4.05;2.65;;;;;;;19.77;68.95;98778.81;5086133;28;20047;-66
2021/06/30 05:04:06;;;;;;;4.60;2.45;;;;;;;19.78;68.44;98780.50;5072647;28;20041;-65
2021/06/30 05:06:35;;;;;;;2.38;2.17;;;;;;;19.81;68.55;98788.19;5065978;28;20051;-65
2021/06/30 05:09:00;;;;;;;3.03;2.10;;;;;;;19.83;67.79;98777.56;5066104;28;20044;-66
2021/06/30 05:11:26;;;;;;;4.63;2.38;;;;;;;19.74;68.19;98786.94;5065863;28;20025;-67
2021/06/30 05:13:52;;;;;;;4.30;2.33;;;;;;;19.79;68.33;98782.19;5065804;28;20032;-66
2021/06/30 05:16:18;;;;;;;5.63;2.80;;;;;;;19.80;68.37;98778.63;5065888;28;20261;-66
2021/06/30 05:18:44;;;;;;;4.53;2.58;;;;;;;19.76;68.15;98771.88;5065831;28;20055;-66
2021/06/30 05:21:09;;;;;;;4.28;2.47;;;;;;;19.91;67.60;98772.56;5065783;28;20025;-65
2021/06/30 05:23:35;;;;;;;2.70;2.30;;;;;;;19.94;67.71;98771.50;5065595;28;20378;-66
2021/06/30 05:26:02;;;;;;;4.32;2.78;;;;;;;19.98;67.64;98768.53;5065433;28;20348;-66
2021/06/30 05:28:28;;;;;;;3.25;2.65;;;;;;;20.06;67.55;98761.84;5065422;28;20051;-66
2021/06/30 05:30:54;;;;;;;5.65;2.65;;;;;;;20.10;67.84;98756.22;5065654;28;20021;-65
2021/06/30 05:33:20;;;;;;;5.18;2.28;;;;;;;20.15;66.97;98761.13;5065341;28;20075;-66
2021/06/30 05:35:45;;;;;;;3.10;2.55;;;;;;;20.23;66.38;98744.78;5065583;28;20017;-66
2021/06/30 05:38:11;;;;;;;5.28;2.40;;;;;;;20.39;66.62;98755.78;5077642;28;20032;-65
2021/06/30 05:40:37;;;;;;;3.53;2.33;;;;;;;20.44;66.67;98751.03;5085435;28;20039;-65
2021/06/30 05:43:03;;;;;;;3.85;2.38;;;;;;;20.52;66.42;98739.88;5085421;28;20028;-65
2021/06/30 05:45:29;;;;;;;2.22;2.03;;;;;;;20.68;65.48;98734.31;5085203;28;20016;-65
2021/06/30 05:47:54;;;;;;;3.63;2.15;;;;;;;20.71;65.07;98728.81;5067635;28;20035;-64
2021/06/30 05:50:21;;;;;;;4.15;2.40;;;;;;;20.95;64.98;98733.06;5085192;28;20029;-64
2021/06/30 05:52:47;;;;;;;2.47;2.28;;;;;;;20.89;64.65;98731.75;5084650;28;20052;-64
2021/06/30 05:55:13;;;;;;;3.78;2.20;;;;;;;20.88;64.18;98735.38;5084964;28;20052;-64
2021/06/30 05:57:39;;;;;;;3.78;2.10;;;;;;;20.81;64.71;98723.66;5085345;28;20060;-64
2021/06/30 06:00:16;;;;;;;2.58;1.95;;;;;;;20.61;64.91;98688.38;5085060;28;20032;-65
2021/06/30 06:02:42;;;;;;;2.65;1.85;;;;;;;20.91;64.73;98721.94;5083569;28;20054;-68
2021/06/30 06:05:09;;;;;;;5.82;2.10;;;;;;;20.92;64.82;98722.78;5064886;28;20040;-66
2021/06/30 06:07:35;;;;;;;2.33;2.13;;;;;;;21.09;64.56;98724.06;5064876;28;20333;-66
2021/06/30 06:10:00;;;;;;;4.60;2.33;;;;;;;21.37;63.77;98717.38;5064763;28;20019;-67
2021/06/30 06:12:27;;;;;;;4.35;2.10;;;;;;;21.54;63.39;98737.13;5064836;28;20079;-65
2021/06/30 06:14:53;;;;;;;2.22;2.03;;;;;;;21.61;62.69;98726.91;5064616;28;20044;-67
2021/06/30 06:17:20;;;;;;;2.50;2.13;;;;;;;21.67;62.68;98743.03;5064653;28;20356;-65
2021/06/30 06:19:45;;;;;;;2.50;2.00;;;;;;;21.67;62.43;98748.31;5064576;28;20341;-64
2021/06/30 06:22:11;;;;;;;2.80;2.20;;;;;;;21.61;62.71;98742.72;5075346;28;20027;-66
2021/06/30 06:24:38;;;;;;;3.78;2.75;;;;;;;21.54;62.86;98743.22;5084479;28;20028;-66
2021/06/30 06:27:06;;;;;;;5.78;2.10;;;;;;;21.39;63.29;98749.69;5084294;28;20044;-65
2021/06/30 06:29:32;;;;;;;3.00;2.20;;;;;;;21.39;62.45;98749.69;5084439;28;20051;-66
2021/06/30 06:32:00;;;;;;;8.32;2.38;;;;;;;21.31;63.13;98741.59;5084508;28;20052;-66
2021/06/30 06:34:26;;;;;;;4.22;2.30;;;;;;;21.34;62.57;98744.00;5084228;28;20350;-67
2021/06/30 06:36:52;;;;;;;3.45;2.08;;;;;;;21.46;62.74;98735.09;5084299;28;20036;-67
2021/06/30 06:39:19;;;;;;;4.32;2.42;;;;;;;21.55;62.42;98739.63;5084258;28;20051;-65
2021/06/30 06:41:46;;;;;;;2.72;2.10;;;;;;;21.44;62.36;98737.00;5084255;28;20325;-66
2021/06/30 06:44:12;;;;;;;2.88;2.20;;;;;;;21.53;62.71;98741.56;5084288;28;20044;-66
2021/06/30 06:46:39;;;;;;;2.92;2.33;;;;;;;21.52;62.49;98747.78;5084123;28;20028;-66
2021/06/30 06:49:08;;;;;;;2.90;2.50;;;;;;;21.76;61.66;98745.88;5084083;28;20043;-65
2021/06/30 06:51:37;;;;;;;4.53;2.20;;;;;;;21.82;62.34;98748.84;5083929;28;20048;-65
2021/06/30 06:54:04;;;;;;;3.13;2.22;;;;;;;21.85;62.05;98739.84;5083844;28;20082;-67
2021/06/30 06:56:30;;;;;;;4.32;2.15;;;;;;;21.90;62.34;98753.47;5083813;28;20055;-67
2021/06/30 06:58:56;;;;;;;4.18;2.53;;;;;;;21.87;62.04;98748.44;5083955;28;20040;-65
2021/06/30 07:01:23;;;;;;;3.75;2.35;;;;;;;21.70;62.90;98744.56;5083867;28;20056;-65
2021/06/30 07:03:50;;;;;;;3.35;2.50;;;;;;;21.77;61.89;98740.47;5083312;28;20067;-65
2021/06/30 07:06:16;;;;;;;5.82;2.85;;;;;;;21.70;61.53;98753.31;5082641;28;20048;-66
2021/06/30 07:08:42;;;;;;;6.97;2.72;;;;;;;21.77;62.62;98756.28;5065627;28;20044;-66
2021/06/30 07:11:11;;;;;;;3.03;2.63;;;;;;;21.57;60.73;98752.66;5082641;28;20031;-66
2021/06/30 07:13:40;;;;;;;5.10;2.40;;;;;;;21.80;62.44;98748.13;5065427;28;20340;-66
2021/06/30 07:16:07;;;;;;;2.75;2.40;;;;;;;21.70;61.77;98734.03;5083145;28;20055;-67
2021/06/30 07:18:34;;;;;;;3.65;2.33;;;;;;;21.63;61.84;98724.97;5083220;28;20047;-67
2021/06/30 07:21:01;;;;;;;4.25;2.42;;;;;;;21.82;62.10;98737.44;5083272;28;20052;-68
2021/06/30 07:23:27;;;;;;;5.25;2.80;;;;;;;21.85;62.58;98737.22;5083023;28;20040;-68
2021/06/30 07:25:54;;;;;;;4.82;2.10;;;;;;;21.89;61.91;98736.00;5083215;28;20036;-67
2021/06/30 07:28:20;;;;;;;2.92;2.40;;;;;;;21.94;62.25;98732.97;5083037;28;20040;-66
2021/06/30 07:30:46;;;;;;;7.43;2.63;;;;;;;22.14;61.69;98723.38;5083056;28;20060;-66
2021/06/30 07:33:12;;;;;;;4.35;2.50;;;;;;;22.31;60.71;98720.09;5083144;28;20048;-64
2021/06/30 07:35:38;;;;;;;3.00;1.98;;;;;;;22.45;60.16;98733.97;5082813;28;20305;-66
2021/06/30 07:38:05;;;;;;;2.85;2.40;;;;;;;22.36;59.97;98738.19;5083394;28;20047;-67
2021/06/30 07:40:32;;;;;;;5.05;2.03;;;;;;;22.49;57.99;98746.75;5082927;28;20066;-67
2021/06/30 07:42:58;;;;;;;2.38;2.00;;;;;;;22.61;58.44;98739.56;5082968;28;20039;-66
2021/06/30 07:45:25;;;;;;;5.18;2.30;;;;;;;22.54;57.73;98743.72;5082912;28;20054;-67
2021/06/30 07:47:51;;;;;;;3.15;2.40;;;;;;;22.42;57.51;98748.25;5082820;28;20040;-67
2021/06/30 07:50:17;;;;;;;3.13;2.15;;;;;;;22.50;57.57;98732.59;5082803;28;20039;-66
2021/06/30 07:52:45;;;;;;;6.32;2.70;;;;;;;22.44;58.05;98727.84;5082651;28;20308;-67
2021/06/30 07:55:12;;;;;;;3.42;2.63;;;;;;;22.64;56.63;98747.22;5082617;28;20048;-65
2021/06/30 07:57:38;;;;;;;3.50;2.50;;;;;;;22.82;55.45;98751.88;5082615;28;20043;-68
2021/06/30 08:00:05;;;;;;;3.03;2.60;;;;;;;22.88;56.63;98753.97;5082595;28;20325;-67
2021/06/30 08:02:33;;;;;;;2.90;2.30;;;;;;;22.89;54.69;98751.19;5082778;28;20047;-66
2021/06/30 08:04:59;;;;;;;3.30;2.40;;;;;;;22.84;56.06;98748.13;5081479;28;20063;-68
2021/06/30 08:07:25;;;;;;;6.10;2.40;;;;;;;22.90;55.57;98754.66;5082251;28;20253;-66
2021/06/30 08:10:06;;;;;;;3.70;2.42;;;;;;;23.01;55.88;98751.91;5082601;28;20036;-64
2021/06/30 08:12:33;;;;;;;3.22;2.42;;;;;;;23.10;53.82;98752.91;5082615;28;20255;-68
2021/06/30 08:14:59;;;;;;;3.72;2.63;;;;;;;23.25;54.00;98748.94;5082208;28;20044;-65
2021/06/30 08:17:25;;;;;;;6.88;2.78;;;;;;;23.18;54.18;98739.88;5082077;28;20070;-64
2021/06/30 08:19:51;;;;;;;3.17;2.53;;;;;;;23.29;53.09;98757.44;5082758;28;20330;-65
2021/06/30 08:22:17;;;;;;;3.60;2.38;;;;;;;23.52;53.66;98747.41;5082664;28;20092;-67
2021/06/30 08:24:44;;;;;;;2.90;2.50;;;;;;;23.39;52.72;98746.88;5082463;28;20031;-65
2021/06/30 08:27:11;;;;;;;3.65;2.47;;;;;;;23.26;53.47;98750.59;5082287;28;20036;-65
2021/06/30 08:29:38;;;;;;;6.78;2.63;;;;;;;23.30;54.09;98753.81;5082731;28;20040;-68
2021/06/30 08:32:05;;;;;;;3.30;2.63;;;;;;;23.20;53.77;98756.44;5081364;28;20044;-67
2021/06/30 08:34:31;;;;;;;3.88;2.50;;;;;;;22.88;53.30;98728.41;5081057;28;20040;-67
2021/06/30 08:37:02;;;;;;;5.05;2.45;;;;;;;22.82;54.42;98731.59;5063433;28;20350;-67
2021/06/30 08:39:28;;;;;;;4.35;2.50;;;;;;;22.66;55.21;98753.22;5081709;28;20075;-66
2021/06/30 08:41:55;;;;;;;3.22;2.25;;;;;;;22.65;54.73;98742.78;5062180;28;20037;-67
2021/06/30 08:44:21;;;;;;;6.95;2.22;;;;;;;22.65;54.76;98743.63;5060435;28;20041;-69
2021/06/30 08:46:48;;;;;;;6.15;3.10;;;;;;;22.44;54.72;98724.38;5062240;28;20032;-69
2021/06/30 08:49:18;;;;;;;4.97;2.47;;;;;;;22.45;54.83;98740.06;5062208;28;20056;-69
2021/06/30 08:51:45;;;;;;;4.32;2.42;;;;;;;22.48;54.77;98760.09;5061325;28;20247;-66
2021/06/30 08:54:12;;;;;;;4.93;2.65;;;;;;;22.39;55.46;98777.53;5062309;28;20053;-67
2021/06/30 08:56:40;;;;;;;5.53;2.67;;;;;;;22.43;55.07;98783.38;5062347;28;20051;-68
2021/06/30 08:59:09;;;;;;;5.28;2.60;;;;;;;22.39;55.62;98780.19;5062491;28;20071;-69
2021/06/30 09:01:35;;;;;;;8.43;2.92;;;;;;;22.29;55.48;98785.38;5062247;28;20080;-67
2021/06/30 09:04:01;;;;;;;4.72;2.78;;;;;;;22.23;56.22;98754.22;5074204;28;20284;-67
2021/06/30 09:06:30;;;;;;;10.23;2.90;;;;;;;22.23;55.45;98754.22;5082273;28;20047;-67
2021/06/30 09:08:59;;;;;;;3.88;2.88;;;;;;;22.45;56.06;98774.38;5082252;28;20048;-67
2021/06/30 09:11:27;;;;;;;6.70;2.88;;;;;;;22.49;56.46;98773.16;5082209;28;20270;-67
2021/06/30 09:14:22;;;;;;;4.57;2.60;;;;;;;22.53;55.88;98761.34;5064318;28;20262;-67
2021/06/30 09:16:54;;;;;;;3.15;2.85;;;;;;;22.39;55.31;98730.88;5075107;28;20055;-65
2021/06/30 09:19:20;;;;;;;7.47;2.97;;;;;;;22.49;56.34;98749.41;5064504;28;20063;-66
2021/06/30 09:21:46;;;;;;;3.25;2.55;;;;;;;22.55;55.85;98743.56;5081935;28;20287;-66
2021/06/30 09:24:19;;;;;;;5.45;2.88;;;;;;;22.61;55.72;98757.22;5081908;28;20032;-67
2021/06/30 09:26:51;;;;;;;4.80;2.60;;;;;;;22.63;55.26;98771.97;5081959;28;20259;-66
2021/06/30 09:29:18;;;;;;;4.47;2.60;;;;;;;22.57;55.62;98757.50;5084524;28;20044;-64
2021/06/30 09:31:47;;;;;;;4.57;2.78;;;;;;;22.55;55.77;98735.66;5085496;28;20044;-64
2021/06/30 09:34:19;;;;;;;2.83;2.63;;;;;;;22.66;56.72;98749.72;5085459;28;20052;-66
2021/06/30 09:36:57;;;;;;;4.10;2.70;;;;;;;22.79;56.65;98774.09;5085610;28;20059;-66
2021/06/30 09:39:25;;;;;;;3.63;2.85;;;;;;;22.52;56.95;98730.66;5085371;28;20349;-64
2021/06/30 09:42:09;;;;;;;5.80;3.10;;;;;;;22.45;56.43;98715.50;5085210;28;20036;-65
2021/06/30 09:44:37;;;;;;;5.72;2.85;;;;;;;22.64;57.39;98773.59;5067506;28;20052;-64
2021/06/30 09:47:05;;;;;;;4.35;3.00;;;;;;;22.58;58.39;98772.34;5085313;28;20059;-64
2021/06/30 09:49:32;;;;;;;6.72;2.90;;;;;;;22.53;57.64;98766.63;5085272;28;20044;-68
2021/06/30 09:52:13;;;;;;;9.63;3.08;;;;;;;22.20;57.65;98736.88;5085235;28;20051;-65
2021/06/30 09:54:41;;;;;;;4.57;2.70;;;;;;;22.19;57.51;98742.25;5084946;28;20044;-67
2021/06/30 09:57:12;;;;;;;3.75;2.80;;;;;;;22.29;58.91;98790.66;5085060;28;20036;-67
2021/06/30 09:59:40;;;;;;;4.00;2.70;;;;;;;21.98;59.70;98768.66;5085098;28;20268;-65
2021/06/30 10:02:22;;;;;;;5.78;2.83;;;;;;;21.96;59.18;98752.09;5084995;28;20259;-66
2021/06/30 10:05:00;;;;;;;4.65;2.65;;;;;;;21.91;59.23;98735.88;5084761;28;20290;-65
2021/06/30 10:07:29;;;;;;;5.20;2.75;;;;;;;21.91;58.63;98734.06;5067109;28;20047;-66
2021/06/30 10:09:55;;;;;;;7.32;2.65;;;;;;;22.41;58.59;98788.78;5084928;28;20288;-63
2021/06/30 10:12:26;;;;;;;3.00;2.70;;;;;;;22.43;58.49;98797.41;5084884;28;20092;-65
2021/06/30 10:14:53;;;;;;;8.85;3.03;;;;;;;22.50;58.69;98789.81;5084536;28;20036;-67
2021/06/30 10:17:21;;;;;;;6.95;2.70;;;;;;;22.40;58.18;98781.84;5066762;28;20048;-67
2021/06/30 10:19:49;;;;;;;2.75;2.50;;;;;;;22.19;59.21;98742.25;5084601;28;20063;-67
2021/06/30 10:22:16;;;;;;;5.28;2.53;;;;;;;22.27;59.59;98799.66;5084678;28;20110;-69
2021/06/30 10:24:42;;;;;;;3.92;2.50;;;;;;;22.26;58.90;98788.28;5084450;28;20080;-68
2021/06/30 10:27:10;;;;;;;7.03;2.80;;;;;;;22.34;58.58;98787.63;5084704;28;20047;-66
2021/06/30 10:29:39;;;;;;;6.18;3.05;;;;;;;22.19;58.91;98784.44;5084392;28;20055;-67
2021/06/30 10:32:12;;;;;;;4.10;2.70;;;;;;;22.03;59.23;98748.00;5084372;28;20254;-67
2021/06/30 10:34:37;;;;;;;4.10;2.97;;;;;;;22.39;59.89;98793.38;5084147;28;20119;-66
2021/06/30 10:37:29;;;;;;;7.53;3.15;;;;;;;22.30;59.78;98794.09;5084238;28;20032;-64
2021/06/30 10:40:10;;;;;;;3.88;2.58;;;;;;;22.13;59.41;98800.81;5083944;28;20059;-65
2021/06/30 10:42:39;;;;;;;5.68;2.88;;;;;;;22.09;60.13;98804.66;5084301;28;20060;-68
2021/06/30 10:45:18;;;;;;;3.15;2.50;;;;;;;21.98;60.44;98780.03;5084074;28;20055;-64
2021/06/30 10:47:56;;;;;;;2.90;2.60;;;;;;;22.04;59.87;98813.78;5084163;28;20040;-67
2021/06/30 10:50:32;;;;;;;3.67;2.50;;;;;;;22.05;59.57;98818.09;5084060;28;20348;-66
2021/06/30 10:53:01;;;;;;;5.45;2.58;;;;;;;22.04;59.92;98819.06;5083971;28;20044;-64
2021/06/30 10:55:36;;;;;;;4.70;2.38;;;;;;;22.06;60.05;98805.75;5084020;28;20070;-67
2021/06/30 10:58:11;;;;;;;3.03;2.33;;;;;;;21.91;61.13;98812.31;5084031;28;20276;-70
2021/06/30 11:00:58;;;;;;;6.10;2.72;;;;;;;21.97;60.94;98806.53;5083805;28;20052;-70
2021/06/30 11:03:35;;;;;;;2.63;2.28;;;;;;;21.96;61.18;98818.03;5083543;28;20241;-69
2021/06/30 11:06:12;;;;;;;6.07;2.92;;;;;;;21.97;61.07;98814.44;5083719;28;20056;-68
2021/06/30 11:08:44;;;;;;;5.00;2.72;;;;;;;22.07;61.29;98815.34;5083598;28;20048;-66
2021/06/30 11:11:14;;;;;;;6.13;2.47;;;;;;;22.02;61.03;98821.00;5063721;28;20333;-66
2021/06/30 11:14:13;;;;;;;3.95;2.72;;;;;;;21.68;61.84;98770.25;5063473;28;20037;-66
2021/06/30 11:16:47;;;;;;;4.10;2.72;;;;;;;22.11;61.47;98819.41;5063608;28;20060;-66
2021/06/30 11:19:19;;;;;;;5.40;2.78;;;;;;;22.27;61.04;98812.84;5062442;28;20052;-68
2021/06/30 11:21:51;;;;;;;5.32;2.90;;;;;;;22.11;60.86;98814.13;5082519;28;20296;-70
2021/06/30 11:24:49;;;;;;;7.35;2.78;;;;;;;22.12;61.12;98814.94;5083519;28;20261;-67
2021/06/30 11:30:03;;;;;;;5.93;2.75;;;;;;;21.86;61.56;98824.06;5063156;28;20044;-67
2021/06/30 11:32:36;;;;;;;4.18;2.80;;;;;;;21.88;62.00;98819.50;5063483;28;20286;-68
2021/06/30 11:35:25;;;;;;;3.90;2.50;;;;;;;21.43;62.35;98759.03;5062973;28;20045;-67
2021/06/30 11:38:02;;;;;;;6.80;3.03;;;;;;;21.83;61.88;98820.84;5075440;28;20067;-67
2021/06/30 11:40:34;;;;;;;4.93;2.92;;;;;;;21.86;61.91;98826.72;5080511;28;20048;-68